Time;durP1;ratioP1;P1;durP2;ratioP2;P2;SDS_P1;SDS_P2;PMS_P1;PMS_P2;Temp;Humidity;BMP_temperature;BMP_pressure;BME280_temperature;BME280_humidity;BME280_pressure;Samples;Min_cycle;Max_cycle;Signal;HPM_P1;HPM_P2
2023/01/27 00:00:40;;;;;;;16.42;8.13;;;;;;;-1.07;100.00;99065.13;5056143;28;20099;-72
2023/01/27 00:03:05;;;;;;;15.52;7.85;;;;;;;-1.20;100.00;99039.56;5063438;28;20033;-72
2023/01/27 00:05:31;;;;;;;18.05;8.07;;;;;;;-1.15;100.00;99050.66;5047680;28;20394;-73
2023/01/27 00:07:57;;;;;;;19.65;8.63;;;;;;;-1.06;100.00;99056.19;5052393;28;20067;-72
2023/01/27 00:10:23;;;;;;;17.00;7.68;;;;;;;-0.98;100.00;99061.75;5052564;28;20429;-73
2023/01/27 00:15:33;;;;;;;13.40;7.22;;;;;;;-0.99;100.00;99062.72;5061812;28;20544;-73
2023/01/27 00:17:59;;;;;;;15.60;6.85;;;;;;;-1.19;100.00;99032.44;5038493;28;20056;-73
2023/01/27 00:26:07;;;;;;;16.70;7.55;;;;;;;-0.98;100.00;99075.84;5058469;28;20117;-72
2023/01/27 00:28:34;;;;;;;16.10;8.07;;;;;;;-0.99;100.00;99062.72;5061181;28;20103;-74
2023/01/27 00:31:00;;;;;;;17.98;8.57;;;;;;;-1.05;100.00;99066.69;5061209;28;20025;-73
2023/01/27 00:33:26;;;;;;;16.67;8.02;;;;;;;-1.02;100.00;99063.81;5046606;28;20036;-74
2023/01/27 00:36:03;;;;;;;18.08;8.27;;;;;;;-0.98;100.00;99073.19;5051195;28;20059;-73
2023/01/27 00:38:30;;;;;;;16.38;7.72;;;;;;;-1.00;100.00;99068.97;5043223;28;20032;-73
2023/01/27 00:41:14;;;;;;;20.05;8.93;;;;;;;-1.00;100.00;99075.13;5048171;28;20058;-72
2023/01/27 00:43:40;;;;;;;18.98;8.13;;;;;;;-1.02;100.00;99071.78;5056340;28;20036;-73
2023/01/27 00:46:05;;;;;;;17.25;8.80;;;;;;;-1.03;100.00;99074.53;5052437;28;20552;-73
2023/01/27 00:48:31;;;;;;;14.85;7.55;;;;;;;-1.12;100.00;99057.53;5051781;28;20021;-73
2023/01/27 00:50:56;;;;;;;22.42;9.07;;;;;;;-1.20;100.00;99049.34;5051620;28;20182;-72
2023/01/27 00:53:22;;;;;;;20.75;9.45;;;;;;;-1.18;100.00;99061.53;5035952;28;20054;-73
2023/01/27 00:55:47;;;;;;;19.58;9.55;;;;;;;-1.14;100.00;99068.28;5042112;28;20688;-73
2023/01/27 00:58:13;;;;;;;16.70;8.02;;;;;;;-1.01;100.00;99072.59;5036618;28;20136;-72
2023/01/27 01:00:38;;;;;;;17.10;7.95;;;;;;;-1.13;100.00;99047.88;5055107;28;20084;-73
2023/01/27 01:03:04;;;;;;;21.08;7.97;;;;;;;-1.02;100.00;99070.91;5054761;28;20021;-74
2023/01/27 01:05:29;;;;;;;15.98;7.95;;;;;;;-1.09;100.00;99064.41;5056442;28;20028;-73
2023/01/27 01:07:54;;;;;;;17.95;8.65;;;;;;;-1.16;100.00;99042.81;5062235;28;20029;-73
2023/01/27 01:10:19;;;;;;;15.70;8.02;;;;;;;-1.14;100.00;99041.72;5069385;28;20096;-72
2023/01/27 01:12:45;;;;;;;17.25;8.60;;;;;;;-1.02;100.00;99057.63;5067843;28;20024;-73
2023/01/27 01:15:10;;;;;;;18.05;8.32;;;;;;;-1.01;100.00;99070.78;5042536;28;20037;-73
2023/01/27 01:17:35;;;;;;;17.02;8.00;;;;;;;-0.96;100.00;99067.78;5057959;28;20494;-73
2023/01/27 01:20:01;;;;;;;20.23;8.98;;;;;;;-0.97;100.00;99084.66;5041852;28;20108;-73
2023/01/27 01:22:26;;;;;;;16.75;7.82;;;;;;;-1.11;100.00;99073.34;5036924;28;20032;-73
2023/01/27 01:24:51;;;;;;;19.20;7.65;;;;;;;-1.18;100.00;99060.66;5036218;28;20033;-73
2023/01/27 01:27:17;;;;;;;15.73;7.60;;;;;;;-1.04;100.00;99086.97;5063083;28;20107;-73
2023/01/27 01:29:42;;;;;;;17.55;8.60;;;;;;;-1.11;100.00;99083.94;5066439;28;20025;-73
2023/01/27 01:32:10;;;;;;;18.23;7.85;;;;;;;-1.14;100.00;99081.53;5056215;28;20094;-73
2023/01/27 01:34:36;;;;;;;18.35;7.78;;;;;;;-1.31;100.00;99060.81;5058755;28;20474;-73
2023/01/27 01:37:03;;;;;;;16.08;7.32;;;;;;;-1.37;100.00;99071.91;5051192;28;20016;-74
2023/01/27 01:39:30;;;;;;;18.40;8.45;;;;;;;-1.34;100.00;99074.31;5068351;28;20025;-73
2023/01/27 01:41:55;;;;;;;18.02;8.30;;;;;;;-1.51;100.00;99054.44;5055378;28;20021;-73
2023/01/27 01:44:23;;;;;;;26.20;10.73;;;;;;;-1.36;100.00;99076.28;5041944;28;20024;-74
2023/01/27 01:46:48;;;;;;;14.93;7.28;;;;;;;-1.36;100.00;99069.16;5045641;28;20024;-73
2023/01/27 01:49:17;;;;;;;24.60;10.30;;;;;;;-1.32;100.00;99081.19;5044899;28;20032;-73
2023/01/27 01:51:46;;;;;;;22.45;9.32;;;;;;;-1.49;100.00;99047.19;5054591;28;20444;-73
2023/01/27 01:54:44;;;;;;;20.77;8.80;;;;;;;-1.32;100.00;99062.63;5057496;28;20021;-73
2023/01/27 01:57:15;;;;;;;17.58;8.68;;;;;;;-1.33;100.00;99068.06;5048073;28;20041;-73
2023/01/27 01:59:45;;;;;;;22.23;9.02;;;;;;;-1.37;100.00;99070.09;5053431;28;20033;-73
2023/01/27 02:02:14;;;;;;;22.10;10.68;;;;;;;-1.37;100.00;99063.94;5059023;28;20066;-73
2023/01/27 02:05:12;;;;;;;23.60;9.77;;;;;;;-1.44;100.00;99057.44;5056732;28;20028;-73
2023/01/27 02:07:48;;;;;;;23.98;10.60;;;;;;;-1.50;100.00;99055.28;5062672;28;20028;-74
2023/01/27 02:10:14;;;;;;;26.33;10.50;;;;;;;-1.55;100.00;99032.63;5052217;28;20079;-73
2023/01/27 02:12:39;;;;;;;23.00;9.93;;;;;;;-1.46;100.00;99056.72;5065466;28;20043;-73
2023/01/27 02:15:06;;;;;;;25.40;9.77;;;;;;;-1.46;100.00;99041.66;5060484;28;20021;-73
2023/01/27 02:17:31;;;;;;;26.20;10.80;;;;;;;-1.52;100.00;99033.31;5040374;28;20036;-73
2023/01/27 02:20:18;;;;;;;21.50;11.05;;;;;;;-1.49;100.00;99035.72;5035860;28;20036;-74
2023/01/27 02:23:02;;;;;;;20.73;10.00;;;;;;;-1.32;100.00;99052.00;5035608;28;20029;-73
2023/01/27 02:25:33;;;;;;;22.20;9.35;;;;;;;-1.24;100.00;99040.78;5049166;28;20032;-73
2023/01/27 02:27:59;;;;;;;22.77;8.57;;;;;;;-1.29;100.00;99037.63;5074188;28;20084;-75
2023/01/27 02:30:25;;;;;;;19.17;8.35;;;;;;;-1.35;100.00;99043.44;5094466;28;20066;-75
2023/01/27 02:32:50;;;;;;;20.80;8.85;;;;;;;-1.46;100.00;99032.84;5064883;28;20040;-75
2023/01/27 02:35:23;;;;;;;19.52;8.68;;;;;;;-1.33;100.00;99058.28;5067121;28;20017;-76
2023/01/27 02:37:50;;;;;;;18.63;8.15;;;;;;;-1.28;100.00;99038.47;5045340;28;20021;-74
2023/01/27 02:40:16;;;;;;;18.33;7.88;;;;;;;-1.27;100.00;99034.88;5063381;28;20021;-73
2023/01/27 02:42:41;;;;;;;20.10;9.40;;;;;;;-1.30;100.00;99041.28;5062408;28;20128;-73
2023/01/27 02:45:07;;;;;;;17.27;8.75;;;;;;;-1.29;100.00;99034.97;5057100;28;20028;-74
2023/01/27 02:47:33;;;;;;;20.95;9.52;;;;;;;-1.28;100.00;99023.41;5043637;28;20033;-74
2023/01/27 02:49:58;;;;;;;23.15;8.90;;;;;;;-1.26;100.00;99028.59;5062660;28;20032;-75
2023/01/27 02:52:23;;;;;;;21.30;9.82;;;;;;;-1.29;100.00;99018.22;5038920;28;20780;-75
2023/01/27 02:54:49;;;;;;;21.80;9.10;;;;;;;-1.50;100.00;98994.25;5061355;28;20021;-74
2023/01/27 02:57:14;;;;;;;19.23;8.35;;;;;;;-1.38;100.00;99019.81;5035119;28;20064;-75
2023/01/27 02:59:39;;;;;;;23.80;9.85;;;;;;;-1.57;100.00;98981.47;5034945;28;20041;-74
2023/01/27 03:02:05;;;;;;;19.15;8.57;;;;;;;-1.23;100.00;99042.47;5038005;28;20020;-75
2023/01/27 03:04:31;;;;;;;19.35;9.02;;;;;;;-1.23;100.00;99036.31;5059855;28;21253;-75
2023/01/27 03:06:56;;;;;;;22.42;9.15;;;;;;;-1.41;100.00;99028.03;5060518;28;20025;-75
2023/01/27 03:09:21;;;;;;;21.13;8.77;;;;;;;-1.55;100.00;99029.97;5067165;28;20102;-75
2023/01/27 03:19:59;;;;;;;23.85;7.85;;;;;;;-1.37;100.00;99050.69;5067435;28;20501;-73
2023/01/27 03:22:25;;;;;;;17.10;8.73;;;;;;;-1.45;100.00;99027.41;5052209;28;20025;-74
2023/01/27 03:24:50;;;;;;;16.40;8.32;;;;;;;-1.45;100.00;99023.91;5037325;28;20058;-74
2023/01/27 03:27:17;;;;;;;21.00;9.10;;;;;;;-1.45;100.00;99039.84;5043713;28;20025;-75
2023/01/27 03:29:54;;;;;;;19.00;8.48;;;;;;;-1.67;100.00;99015.00;5057590;28;20103;-73
2023/01/27 03:32:25;;;;;;;15.13;7.70;;;;;;;-1.40;100.00;99038.50;5047764;28;20028;-73
2023/01/27 03:34:51;;;;;;;14.75;7.13;;;;;;;-1.42;100.00;99034.28;5046418;28;20475;-74
2023/01/27 03:48:12;;;;;;;16.98;7.53;;;;;;;-1.22;100.00;99053.94;5054292;28;20466;-74
2023/01/27 03:50:41;;;;;;;18.05;8.35;;;;;;;-1.30;100.00;99045.75;5033799;28;20056;-74
2023/01/27 03:53:08;;;;;;;16.83;7.65;;;;;;;-1.38;100.00;99030.44;5047322;28;20047;-74
2023/01/27 03:55:35;;;;;;;18.50;8.43;;;;;;;-1.43;100.00;99037.91;5046950;28;20024;-74
2023/01/27 03:58:13;;;;;;;17.30;8.10;;;;;;;-1.23;100.00;99066.38;5046418;28;20035;-73
2023/01/27 04:00:39;;;;;;;18.02;9.07;;;;;;;-1.24;100.00;99064.66;5055575;28;20029;-74
2023/01/27 04:08:32;;;;;;;15.70;7.72;;;;;;;-1.29;100.00;99053.56;5053925;28;20086;-73
2023/01/27 04:13:46;;;;;;;15.85;7.55;;;;;;;-1.33;100.00;99058.28;5053754;28;20043;-74
2023/01/27 04:16:11;;;;;;;16.15;8.77;;;;;;;-1.28;100.00;99065.88;5057167;28;20452;-74
2023/01/27 04:18:36;;;;;;;17.80;8.40;;;;;;;-1.37;100.00;99050.69;5043727;28;20020;-74
2023/01/27 04:21:03;;;;;;;15.82;8.82;;;;;;;-1.28;100.00;99055.28;5055957;28;20025;-74
2023/01/27 04:23:28;;;;;;;18.05;9.20;;;;;;;-1.30;100.00;99061.66;5079577;28;20497;-74
2023/01/27 04:25:55;;;;;;;16.45;8.57;;;;;;;-1.32;100.00;99048.50;5047403;28;20025;-74
2023/01/27 04:28:21;;;;;;;18.30;8.45;;;;;;;-1.40;100.00;99046.47;5041016;28;20020;-74
2023/01/27 04:30:46;;;;;;;16.75;8.52;;;;;;;-1.46;100.00;99035.50;5062464;28;20035;-74
2023/01/27 04:33:14;;;;;;;17.15;7.90;;;;;;;-1.40;100.00;99050.94;5072467;28;20025;-74
2023/01/27 04:35:43;;;;;;;19.77;9.60;;;;;;;-1.42;100.00;99061.66;5043620;28;20025;-74
2023/01/27 04:38:09;;;;;;;21.38;9.02;;;;;;;-1.41;100.00;99043.94;5042478;28;20028;-74
2023/01/27 04:40:34;;;;;;;19.15;8.90;;;;;;;-1.29;100.00;99069.50;5072261;28;20020;-74
2023/01/27 04:42:59;;;;;;;19.33;9.43;;;;;;;-1.55;100.00;99032.63;5061175;28;20028;-74
2023/01/27 04:45:25;;;;;;;27.17;9.65;;;;;;;-1.38;100.00;99054.31;5053816;28;20017;-74
2023/01/27 04:47:50;;;;;;;19.05;9.02;;;;;;;-1.27;100.00;99080.84;5047198;28;20021;-74
2023/01/27 04:50:16;;;;;;;22.70;10.07;;;;;;;-1.34;100.00;99066.34;5057075;28;20388;-74
2023/01/27 04:52:41;;;;;;;17.55;9.23;;;;;;;-1.42;100.00;99064.31;5072361;28;20104;-74
2023/01/27 04:55:07;;;;;;;16.30;8.90;;;;;;;-1.46;100.00;99044.31;5072007;28;20031;-74
2023/01/27 04:57:32;;;;;;;18.52;9.85;;;;;;;-1.34;100.00;99067.22;5046223;28;20090;-75
2023/01/27 04:59:58;;;;;;;19.73;9.20;;;;;;;-1.50;100.00;99042.00;5063023;28;20120;-74
2023/01/27 05:02:25;;;;;;;20.92;10.05;;;;;;;-1.37;100.00;99053.34;5060670;28;20112;-76
2023/01/27 05:04:50;;;;;;;19.65;8.85;;;;;;;-1.38;100.00;99049.84;5085541;28;20024;-76
2023/01/27 05:07:15;;;;;;;20.83;9.43;;;;;;;-1.26;100.00;99068.41;5059296;28;20094;-75
2023/01/27 05:09:41;;;;;;;19.38;8.98;;;;;;;-1.33;100.00;99065.41;5041127;28;20031;-76
2023/01/27 05:12:06;;;;;;;19.00;9.23;;;;;;;-1.31;100.00;99068.78;5052950;28;20021;-75
2023/01/27 05:14:31;;;;;;;20.83;8.98;;;;;;;-1.38;100.00;99062.28;5047871;28;20025;-75
2023/01/27 05:16:57;;;;;;;18.73;8.95;;;;;;;-1.38;100.00;99070.22;5044844;28;20032;-74
2023/01/27 05:19:22;;;;;;;20.52;9.25;;;;;;;-1.34;100.00;99079.63;5059802;28;20491;-74
2023/01/27 05:21:47;;;;;;;22.00;9.75;;;;;;;-1.45;100.00;99064.56;5065083;28;20031;-73
2023/01/27 05:24:13;;;;;;;19.17;9.10;;;;;;;-1.37;100.00;99080.72;5064244;28;20024;-71
2023/01/27 05:26:38;;;;;;;19.25;8.85;;;;;;;-1.51;100.00;99057.09;5054715;28;20078;-78
2023/01/27 05:29:05;;;;;;;18.27;9.02;;;;;;;-1.44;100.00;99081.31;5045101;28;20025;-76
2023/01/27 05:31:31;;;;;;;27.45;9.88;;;;;;;-1.48;100.00;99087.84;5048853;28;20498;-78
2023/01/27 05:33:59;;;;;;;20.13;9.27;;;;;;;-1.71;100.00;99058.63;5049558;28;20034;-78
2023/01/27 05:36:25;;;;;;;16.80;8.33;;;;;;;-1.43;100.00;99098.94;5054326;22;20068;-59
2023/01/27 05:38:52;;;;;;;21.98;9.57;;;;;;;-1.45;100.00;99090.25;5041761;28;20376;-56
2023/01/27 05:41:19;;;;;;;18.48;8.98;;;;;;;-1.50;100.00;99095.06;5055011;28;20029;-56
2023/01/27 05:43:46;;;;;;;22.20;9.43;;;;;;;-1.48;100.00;99091.34;5048330;28;20476;-56
2023/01/27 05:46:17;;;;;;;18.08;8.80;;;;;;;-1.45;100.00;99106.16;5042167;28;20052;-56
2023/01/27 05:48:45;;;;;;;20.73;9.77;;;;;;;-1.43;100.00;99098.94;5050625;28;20043;-56
2023/01/27 05:51:12;;;;;;;16.35;7.18;;;;;;;-1.38;100.00;99102.91;5044705;28;20478;-56
2023/01/27 05:53:37;;;;;;;20.83;8.60;;;;;;;-1.50;100.00;99098.56;5056059;28;20035;-56
2023/01/27 05:56:03;;;;;;;17.67;9.05;;;;;;;-1.53;100.00;99098.81;5041020;28;20021;-56
2023/01/27 05:58:30;;;;;;;19.90;9.27;;;;;;;-1.54;100.00;99097.13;5046396;28;20403;-56
2023/01/27 06:00:55;;;;;;;20.52;9.02;;;;;;;-1.55;100.00;99098.94;5051346;28;20029;-56
2023/01/27 06:03:21;;;;;;;20.23;8.35;;;;;;;-1.50;100.00;99103.03;5053291;28;20035;-57
2023/01/27 06:05:52;;;;;;;19.88;8.65;;;;;;;-1.52;100.00;99107.59;5053784;28;20028;-56
2023/01/27 06:08:18;;;;;;;17.95;7.38;;;;;;;-1.50;100.00;99108.34;5050987;28;20036;-56
2023/01/27 06:10:44;;;;;;;18.85;8.20;;;;;;;-1.47;100.00;99105.44;5050128;28;20024;-56
2023/01/27 06:13:10;;;;;;;15.02;6.35;;;;;;;-1.53;100.00;99097.97;5047588;28;20112;-56
2023/01/27 06:15:39;;;;;;;16.73;7.03;;;;;;;-1.56;100.00;99105.19;5041059;28;20017;-56
2023/01/27 06:18:04;;;;;;;15.77;6.20;;;;;;;-1.59;100.00;99099.28;5049909;28;20098;-56
2023/01/27 06:20:31;;;;;;;15.43;6.25;;;;;;;-1.56;100.00;99097.22;5051099;28;20060;-56
2023/01/27 06:22:56;;;;;;;13.57;6.20;;;;;;;-1.58;100.00;99112.41;5043451;28;20036;-70
2023/01/27 06:25:21;;;;;;;14.38;6.95;;;;;;;-1.68;100.00;99097.34;5050933;28;20032;-69
2023/01/27 06:28:02;;;;;;;14.23;6.10;;;;;;;-1.66;100.00;99109.53;5050994;28;20027;-71
2023/01/27 06:30:27;;;;;;;15.95;6.68;;;;;;;-1.67;100.00;99102.53;5052404;28;20032;-70
2023/01/27 06:32:59;;;;;;;18.00;6.97;;;;;;;-1.67;100.00;99102.53;5046752;28;20423;-70
2023/01/27 06:35:24;;;;;;;15.50;6.47;;;;;;;-1.62;100.00;99099.53;5050435;28;20025;-70
2023/01/27 06:37:53;;;;;;;19.15;7.45;;;;;;;-1.61;100.00;99104.72;5055625;28;20450;-70
2023/01/27 06:40:18;;;;;;;16.75;6.97;;;;;;;-1.56;100.00;99107.00;5044190;28;20033;-70
2023/01/27 06:42:44;;;;;;;20.13;7.70;;;;;;;-1.58;100.00;99124.84;5036890;28;20124;-68
2023/01/27 06:45:12;;;;;;;17.10;7.30;;;;;;;-1.60;100.00;99124.97;5056548;28;20081;-70
2023/01/27 06:47:39;;;;;;;20.13;7.93;;;;;;;-1.60;100.00;99124.97;5057564;28;20032;-68
2023/01/27 06:50:06;;;;;;;19.45;7.55;;;;;;;-1.53;100.00;99138.59;5066986;28;20115;-70
2023/01/27 06:52:32;;;;;;;19.27;7.72;;;;;;;-1.55;100.00;99141.41;5054544;28;20044;-69
2023/01/27 06:54:57;;;;;;;14.13;6.75;;;;;;;-1.56;100.00;99141.50;5068126;28;20053;-69
2023/01/27 06:57:23;;;;;;;18.50;7.45;;;;;;;-1.58;100.00;99148.72;5044336;28;20025;-68
2023/01/27 06:59:48;;;;;;;16.90;7.57;;;;;;;-1.61;100.00;99155.09;5040536;28;20044;-68
2023/01/27 07:02:13;;;;;;;17.38;7.10;;;;;;;-1.65;100.00;99161.63;5051457;28;20024;-72
2023/01/27 07:04:39;;;;;;;16.05;7.05;;;;;;;-1.62;100.00;99156.09;5053265;28;20047;-69
2023/01/27 07:07:05;;;;;;;14.13;6.03;;;;;;;-1.51;100.00;99163.22;5051514;28;20061;-69
2023/01/27 07:09:31;;;;;;;15.45;6.82;;;;;;;-1.55;100.00;99162.63;5042117;28;20025;-68
2023/01/27 07:11:56;;;;;;;19.02;7.75;;;;;;;-1.56;100.00;99160.91;5057100;28;20028;-69
2023/01/27 07:14:22;;;;;;;17.45;7.80;;;;;;;-1.55;100.00;99169.72;5056229;28;20036;-70
2023/01/27 07:16:47;;;;;;;13.38;6.80;;;;;;;-1.56;100.00;99170.69;5045999;28;20121;-61
2023/01/27 07:19:13;;;;;;;19.25;7.63;;;;;;;-1.47;100.00;99185.03;5047589;28;20033;-62
2023/01/27 07:21:38;;;;;;;18.67;8.73;;;;;;;-1.36;100.00;99174.47;5053555;28;20033;-62
2023/01/27 07:24:04;;;;;;;17.75;7.35;;;;;;;-1.33;100.00;99168.91;5063911;28;20060;-62
2023/01/27 07:26:30;;;;;;;18.63;7.45;;;;;;;-1.34;100.00;99168.09;5050051;28;20021;-63
2023/01/27 07:28:55;;;;;;;14.23;6.63;;;;;;;-1.36;100.00;99170.00;5047584;28;20028;-63
2023/01/27 07:31:22;;;;;;;15.65;6.75;;;;;;;-1.34;100.00;99176.03;5048523;28;20052;-63
2023/01/27 07:33:48;;;;;;;17.15;7.30;;;;;;;-1.36;100.00;99185.09;5049846;28;20036;-63
2023/01/27 07:36:13;;;;;;;16.27;6.80;;;;;;;-1.36;100.00;99185.09;5052283;28;20020;-63
2023/01/27 07:38:39;;;;;;;16.02;7.00;;;;;;;-1.36;100.00;99195.69;5044110;28;20052;-64
2023/01/27 07:41:05;;;;;;;16.05;6.97;;;;;;;-1.38;100.00;99190.50;5045372;28;20017;-63
2023/01/27 07:43:31;;;;;;;17.73;7.85;;;;;;;-1.39;100.00;99188.81;5046312;28;20036;-63
2023/01/27 07:45:57;;;;;;;19.85;8.80;;;;;;;-1.47;100.00;99182.38;5043306;28;20408;-62
2023/01/27 07:48:23;;;;;;;20.17;8.20;;;;;;;-1.38;100.00;99198.47;5048511;28;20037;-62
2023/01/27 07:50:48;;;;;;;18.83;7.53;;;;;;;-1.34;100.00;99193.75;5049157;28;20037;-63
2023/01/27 07:53:14;;;;;;;22.92;8.50;;;;;;;-1.28;100.00;99198.59;5041881;28;20391;-63
2023/01/27 07:55:40;;;;;;;22.70;9.07;;;;;;;-1.33;100.00;99203.41;5043575;28;20036;-63
2023/01/27 07:58:08;;;;;;;23.40;9.15;;;;;;;-1.37;100.00;99204.59;5047170;28;20032;-63
2023/01/27 08:00:34;;;;;;;22.20;10.02;;;;;;;-1.33;100.00;99200.78;5046649;28;20115;-62
2023/01/27 08:03:00;;;;;;;27.58;10.35;;;;;;;-1.31;100.00;99204.16;5053570;28;20898;-62
2023/01/27 08:05:37;;;;;;;27.90;10.38;;;;;;;-1.32;100.00;99207.75;5040411;28;20092;-62
2023/01/27 08:08:03;;;;;;;27.48;10.15;;;;;;;-1.32;100.00;99213.06;5046879;28;20025;-62
2023/01/27 08:10:29;;;;;;;21.98;9.80;;;;;;;-1.21;100.00;99215.72;5039762;28;20124;-63
2023/01/27 08:12:54;;;;;;;23.85;9.82;;;;;;;-1.11;100.00;99222.03;5045710;28;20046;-63
2023/01/27 08:15:20;;;;;;;23.42;9.35;;;;;;;-1.02;100.00;99219.59;5045063;28;20764;-64
2023/01/27 08:17:54;;;;;;;21.23;8.77;;;;;;;-0.93;100.00;99218.91;5043054;28;20028;-66
2023/01/27 08:20:19;;;;;;;18.90;7.95;;;;;;;-0.96;100.00;99204.06;5039229;28;20472;-64
2023/01/27 08:22:45;;;;;;;20.63;8.70;;;;;;;-0.95;100.00;99208.38;5047738;28;20082;-64
2023/01/27 08:25:10;;;;;;;23.30;8.85;;;;;;;-0.95;100.00;99203.06;5047989;28;20488;-63
2023/01/27 08:27:35;;;;;;;19.33;8.55;;;;;;;-0.92;100.00;99209.97;5046854;28;20027;-67
2023/01/27 08:30:01;;;;;;;18.20;7.60;;;;;;;-0.82;100.00;99207.44;5052114;28;20396;-64
2023/01/27 08:32:26;;;;;;;22.48;9.02;;;;;;;-0.69;100.00;99221.44;5044447;28;20112;-64
2023/01/27 08:34:53;;;;;;;21.08;8.63;;;;;;;-0.65;100.00;99209.59;5036051;28;20029;-64
2023/01/27 08:37:19;;;;;;;19.95;7.97;;;;;;;-0.54;100.00;99216.72;5043008;28;20067;-64
2023/01/27 08:39:45;;;;;;;22.08;8.27;;;;;;;-0.50;100.00;99226.13;5044855;28;20029;-64
2023/01/27 08:42:11;;;;;;;19.95;8.27;;;;;;;-0.49;100.00;99228.66;5055107;28;20086;-65
2023/01/27 08:44:36;;;;;;;19.27;7.80;;;;;;;-0.37;100.00;99229.47;5055274;28;20464;-65
2023/01/27 08:47:02;;;;;;;17.85;7.38;;;;;;;-0.34;100.00;99229.25;5047817;28;20028;-65
2023/01/27 08:49:27;;;;;;;20.05;7.72;;;;;;;-0.28;100.00;99228.75;5044824;28;20040;-65
2023/01/27 08:51:53;;;;;;;19.27;7.53;;;;;;;-0.24;100.00;99232.88;5040884;28;20033;-66
2023/01/27 08:54:18;;;;;;;21.23;9.52;;;;;;;-0.31;100.00;99236.97;5062344;28;20122;-66
2023/01/27 08:56:44;;;;;;;14.20;6.38;;;;;;;-0.19;100.00;99239.63;5043831;28;20159;-66
2023/01/27 08:59:09;;;;;;;14.38;6.10;;;;;;;-0.20;100.00;99227.28;5044158;28;20031;-64
2023/01/27 09:01:34;;;;;;;15.95;7.00;;;;;;;-0.06;100.00;99227.00;5042810;28;20107;-66
2023/01/27 09:04:00;;;;;;;15.20;6.65;;;;;;;0.21;100.00;99229.22;5070318;28;20047;-66
2023/01/27 09:06:25;;;;;;;16.38;6.63;;;;;;;0.44;100.00;99229.94;5042879;28;20473;-66
2023/01/27 09:09:09;;;;;;;13.82;5.30;;;;;;;0.62;100.00;99217.75;5044292;28;20039;-66
2023/01/27 09:11:37;;;;;;;13.73;5.30;;;;;;;0.67;100.00;99205.88;5038285;28;20021;-66
2023/01/27 09:14:03;;;;;;;11.30;4.78;;;;;;;0.75;100.00;99216.72;5043670;28;20028;-66
2023/01/27 09:16:28;;;;;;;19.23;4.88;;;;;;;0.80;100.00;99217.16;5051547;28;20032;-66
2023/01/27 09:18:54;;;;;;;10.25;4.70;;;;;;;0.61;100.00;99212.56;5042474;28;20032;-66
2023/01/27 09:21:19;;;;;;;11.27;4.68;;;;;;;0.46;100.00;99225.34;5054526;28;20074;-66
2023/01/27 09:23:48;;;;;;;9.73;4.28;;;;;;;0.34;100.00;99216.59;5039583;28;20123;-66
2023/01/27 09:26:13;;;;;;;6.78;3.55;;;;;;;0.35;100.00;99220.09;5053810;28;20028;-66
2023/01/27 09:28:39;;;;;;;10.73;4.15;;;;;;;0.34;100.00;99221.03;5038226;28;20051;-64
2023/01/27 09:31:04;;;;;;;11.13;4.28;;;;;;;0.28;100.00;99226.88;5046025;28;20467;-66
2023/01/27 09:33:30;;;;;;;10.60;4.65;;;;;;;0.34;100.00;99226.38;5052269;28;20949;-69
2023/01/27 09:36:04;;;;;;;11.52;4.70;;;;;;;0.46;100.00;99217.38;5046350;28;20381;-66
2023/01/27 09:38:36;;;;;;;10.65;4.53;;;;;;;0.61;100.00;99216.06;5050587;28;20107;-66
2023/01/27 09:41:33;;;;;;;10.55;3.92;;;;;;;0.76;100.00;99223.72;5053442;28;20426;-66
2023/01/27 09:44:01;;;;;;;12.70;5.00;;;;;;;0.88;100.00;99231.50;5071653;28;20032;-66
2023/01/27 09:46:51;;;;;;;12.30;5.20;;;;;;;0.84;100.00;99214.13;5053322;28;20141;-66
2023/01/27 09:49:50;;;;;;;13.88;4.97;;;;;;;0.90;100.00;99228.72;5050243;28;20028;-66
2023/01/27 09:52:38;;;;;;;10.48;4.65;;;;;;;0.80;100.00;99222.50;5049591;28;20111;-66
2023/01/27 09:55:22;;;;;;;10.40;4.95;;;;;;;0.88;100.00;99234.19;5051577;28;20058;-66
2023/01/27 09:58:05;;;;;;;12.60;5.55;;;;;;;0.77;100.00;99228.09;5044433;28;20516;-66
2023/01/27 10:00:48;;;;;;;31.80;11.73;;;;;;;0.89;100.00;99224.34;5054487;28;20043;-66
2023/01/27 10:03:42;;;;;;;16.63;6.93;;;;;;;0.90;100.00;99228.72;5061959;28;20020;-66
2023/01/27 10:06:39;;;;;;;12.27;5.85;;;;;;;0.95;100.00;99234.50;5047361;28;20033;-66
2023/01/27 10:09:31;;;;;;;13.73;5.80;;;;;;;0.93;100.00;99230.28;5038947;28;20092;-66
2023/01/27 10:12:10;;;;;;;12.63;5.88;;;;;;;1.14;100.00;99228.44;5039762;28;20023;-66
2023/01/27 10:15:04;;;;;;;14.32;6.95;;;;;;;1.23;100.00;99226.78;5049433;28;20479;-67
2023/01/27 10:17:53;;;;;;;15.95;6.88;;;;;;;1.03;100.00;99231.19;5046188;28;20480;-66
2023/01/27 10:20:41;;;;;;;15.63;6.55;;;;;;;0.84;100.00;99224.78;5037078;28;20036;-66
2023/01/27 10:23:29;;;;;;;15.00;7.20;;;;;;;0.85;100.00;99230.94;5048594;28;20075;-64
2023/01/27 10:26:13;;;;;;;18.10;6.53;;;;;;;0.82;100.00;99229.38;5053795;28;20069;-65
2023/01/27 10:28:46;;;;;;;14.18;6.28;;;;;;;0.81;100.00;99226.84;5050785;28;20044;-65
2023/01/27 10:31:22;;;;;;;14.50;6.68;;;;;;;0.87;100.00;99226.34;5044511;28;20024;-65
2023/01/27 10:33:55;;;;;;;14.38;6.75;;;;;;;1.06;100.00;99223.75;5039762;28;20024;-65
2023/01/27 10:36:29;;;;;;;18.65;8.32;;;;;;;1.28;100.00;99213.91;5062231;28;20111;-65
2023/01/27 10:39:14;;;;;;;18.52;8.98;;;;;;;1.37;100.00;99229.09;5043472;28;20035;-65
2023/01/27 10:42:00;;;;;;;16.90;8.30;;;;;;;1.41;100.00;99224.34;5046037;28;20480;-65
2023/01/27 10:44:46;;;;;;;16.65;7.82;;;;;;;1.19;100.00;99220.03;5038077;28;20060;-65
2023/01/27 10:47:31;;;;;;;24.48;10.90;;;;;;;1.09;100.00;99218.16;5050321;28;20028;-65
2023/01/27 10:50:06;;;;;;;21.23;9.30;;;;;;;1.02;100.00;99233.00;5035262;28;20080;-65
2023/01/27 10:52:37;;;;;;;15.02;6.85;;;;;;;1.12;100.00;99221.53;5043037;28;20364;-65
2023/01/27 10:55:13;;;;;;;15.63;7.00;;;;;;;0.88;100.00;99228.00;5039953;28;20024;-65
2023/01/27 10:57:50;;;;;;;15.73;7.53;;;;;;;0.75;100.00;99230.88;5042300;28;20037;-65
2023/01/27 11:00:49;;;;;;;14.18;6.82;;;;;;;0.63;100.00;99232.78;5041464;28;20031;-65
2023/01/27 11:03:24;;;;;;;18.05;7.28;;;;;;;0.52;100.00;99235.47;5036352;28;20071;-65
2023/01/27 11:05:58;;;;;;;15.60;6.57;;;;;;;0.41;100.00;99233.72;5053637;28;20079;-65
2023/01/27 11:08:34;;;;;;;19.60;7.45;;;;;;;0.50;100.00;99232.13;5056301;28;20467;-65
2023/01/27 11:13:49;;;;;;;14.02;7.32;;;;;;;0.61;100.00;99233.88;5060582;28;20052;-65
2023/01/27 11:16:17;;;;;;;16.63;8.15;;;;;;;0.50;100.00;99232.13;5041061;28;20032;-64
2023/01/27 11:18:46;;;;;;;18.13;7.65;;;;;;;0.46;100.00;99225.34;5066765;28;20119;-64
2023/01/27 11:21:18;;;;;;;15.02;7.35;;;;;;;0.34;100.00;99226.38;5039745;28;20029;-64
2023/01/27 11:23:58;;;;;;;16.80;7.32;;;;;;;0.36;100.00;99214.63;5032679;28;20420;-64
2023/01/27 11:26:36;;;;;;;17.85;6.65;;;;;;;0.44;100.00;99232.59;5044321;28;20445;-64
2023/01/27 11:29:16;;;;;;;17.13;7.47;;;;;;;0.43;100.00;99233.59;5043429;28;20029;-64
2023/01/27 11:31:52;;;;;;;15.98;6.68;;;;;;;0.39;100.00;99235.69;5044168;28;20078;-58
2023/01/27 11:34:32;;;;;;;13.43;6.57;;;;;;;0.33;100.00;99228.19;5051783;28;20028;-64
2023/01/27 11:36:59;;;;;;;13.98;6.32;;;;;;;0.47;100.00;99221.69;5042365;28;20034;-64
2023/01/27 11:39:29;;;;;;;14.05;6.03;;;;;;;0.53;100.00;99221.22;5051429;28;20070;-64
2023/01/27 11:41:55;;;;;;;14.00;6.57;;;;;;;0.54;100.00;99209.56;5045277;28;20028;-65
2023/01/27 11:44:24;;;;;;;16.20;7.30;;;;;;;0.59;100.00;99210.03;5042801;28;20039;-64
2023/01/27 11:46:51;;;;;;;15.32;6.45;;;;;;;0.60;100.00;99213.53;5048863;28;20036;-64
2023/01/27 11:49:40;;;;;;;15.13;6.75;;;;;;;0.50;100.00;99213.47;5041362;28;20052;-64
2023/01/27 11:52:16;;;;;;;16.83;6.22;;;;;;;0.51;100.00;99212.50;5058986;28;20476;-62
2023/01/27 11:55:00;;;;;;;16.65;6.72;;;;;;;0.58;100.00;99203.03;5042625;28;20116;-62
2023/01/27 11:57:27;;;;;;;12.50;5.55;;;;;;;0.54;100.00;99206.06;5032646;28;20021;-62
2023/01/27 12:00:09;;;;;;;15.35;6.15;;;;;;;0.46;100.00;99209.38;5038125;28;20564;-63
2023/01/27 12:02:38;;;;;;;17.17;7.35;;;;;;;0.36;100.00;99206.63;5044388;28;20104;-62
2023/01/27 12:05:13;;;;;;;9.77;4.90;;;;;;;0.41;100.00;99200.94;5049247;28;20077;-62
2023/01/27 12:07:44;;;;;;;12.55;6.00;;;;;;;0.42;100.00;99210.63;5056390;28;20287;-63